createdAt,value
2019-03-06T00:00:51.585Z,18.53
2019-03-06T00:05:57.745Z,14.67
2019-03-06T00:11:02.388Z,14.73
2019-03-06T00:16:07.373Z,12.93
2019-03-06T00:21:12.078Z,14.50
2019-03-06T00:26:18.154Z,16.93
2019-03-06T00:31:22.791Z,15.63
2019-03-06T00:36:28.968Z,17.10
2019-03-06T00:41:35.453Z,14.90
2019-03-06T00:46:40.118Z,16.17
2019-03-06T00:51:44.842Z,13.53
2019-03-06T00:56:49.398Z,18.00
2019-03-06T01:01:54.006Z,9.30
2019-03-06T01:06:58.966Z,14.67
2019-03-06T01:12:03.707Z,13.10
2019-03-06T01:17:08.258Z,23.97
2019-03-06T01:22:12.992Z,12.33
2019-03-06T01:27:17.834Z,13.07
2019-03-06T01:32:22.882Z,12.20
2019-03-06T01:37:38.274Z,12.53
2019-03-06T01:42:44.555Z,12.63
2019-03-06T01:47:50.306Z,33.30
2019-03-06T01:52:55.064Z,11.60
2019-03-06T01:57:59.647Z,32.63
2019-03-06T02:03:04.240Z,13.37
2019-03-06T02:08:08.886Z,8.33
2019-03-06T02:13:13.730Z,7.87
2019-03-06T02:18:18.370Z,11.30
2019-03-06T02:23:23.010Z,11.57
2019-03-06T02:28:27.650Z,8.10
2019-03-06T02:33:32.498Z,10.20
2019-03-06T02:38:37.138Z,10.53
2019-03-06T02:43:41.886Z,8.10
2019-03-06T02:48:46.623Z,8.33
2019-03-06T02:53:51.469Z,9.60
2019-03-06T02:58:57.643Z,8.40
2019-03-06T03:04:03.928Z,10.40
2019-03-06T03:09:17.184Z,18.33
2019-03-06T03:14:21.907Z,9.27
2019-03-06T03:19:26.651Z,10.07
2019-03-06T03:24:31.297Z,8.43
2019-03-06T03:29:35.922Z,8.50
2019-03-06T03:34:41.700Z,7.27
2019-03-06T03:39:46.444Z,11.47
2019-03-06T03:44:51.117Z,9.60
2019-03-06T03:49:55.824Z,12.23
2019-03-06T03:55:00.579Z,9.40
2019-03-06T04:00:08.488Z,15.03
2019-03-06T04:05:13.487Z,12.87
2019-03-06T04:10:18.076Z,18.73
2019-03-06T04:15:22.608Z,25.23
2019-03-06T04:20:28.568Z,31.20
2019-03-06T04:25:33.321Z,24.57
2019-03-06T04:30:38.076Z,19.97
2019-03-06T04:35:42.816Z,17.83
2019-03-06T04:40:47.553Z,19.27
2019-03-06T04:45:52.187Z,27.50
2019-03-06T04:50:57.597Z,30.73
2019-03-06T04:56:02.183Z,34.27
2019-03-06T05:01:06.832Z,21.10
2019-03-06T05:06:11.465Z,22.23
2019-03-06T05:11:16.116Z,19.07
2019-03-06T05:16:22.500Z,26.73
2019-03-06T05:21:27.344Z,23.63
2019-03-06T05:26:32.084Z,18.10
2019-03-06T05:31:36.824Z,16.97
2019-03-06T05:36:52.022Z,16.50
2019-03-06T05:41:56.760Z,18.67
2019-03-06T05:47:01.506Z,17.00
2019-03-06T05:52:06.250Z,21.73
2019-03-06T05:57:10.986Z,17.87
2019-03-06T06:02:15.731Z,20.47
2019-03-06T06:07:20.579Z,21.40
2019-03-06T06:12:25.315Z,20.50
2019-03-06T06:17:30.060Z,14.23
2019-03-06T06:22:36.236Z,13.37
2019-03-06T06:27:42.208Z,14.47
2019-03-06T06:32:46.957Z,13.53
2019-03-06T06:37:51.586Z,13.63
2019-03-06T06:42:56.338Z,12.10
2019-03-06T06:48:18.479Z,13.10
2019-03-06T06:53:32.189Z,10.07
2019-03-06T06:58:48.658Z,10.50
2019-03-06T07:03:58.418Z,13.27
2019-03-06T07:09:23.336Z,26.50
2019-03-06T07:14:32.478Z,18.37
2019-03-06T07:19:38.967Z,21.10
2019-03-06T07:24:45.245Z,20.97
2019-03-06T07:30:08.114Z,23.10
2019-03-06T07:36:05.283Z,18.37
2019-03-06T07:41:11.566Z,15.10
2019-03-06T07:46:26.957Z,12.77
2019-03-06T07:51:51.522Z,10.27
2019-03-06T07:56:59.296Z,9.23
2019-03-06T08:02:13.340Z,9.50
2019-03-06T08:07:18.089Z,8.43
2019-03-06T08:12:37.066Z,8.87
2019-03-06T08:17:52.556Z,9.63
2019-03-06T08:23:15.217Z,10.07
2019-03-06T08:28:19.961Z,11.63
2019-03-06T08:33:24.709Z,13.67
2019-03-06T08:38:29.489Z,12.43
2019-03-06T08:43:34.079Z,14.10
2019-03-06T08:48:52.648Z,9.63
2019-03-06T08:54:02.012Z,9.40
2019-03-06T08:59:14.223Z,5.33
2019-03-06T09:04:32.898Z,6.27
2019-03-06T09:09:44.911Z,4.87
2019-03-06T09:14:52.215Z,4.53
2019-03-06T09:20:04.947Z,5.30
2019-03-06T09:25:28.024Z,4.30
2019-03-06T09:30:34.307Z,4.03
2019-03-06T09:35:46.518Z,4.80
2019-03-06T09:41:08.906Z,4.37
2019-03-06T09:46:15.152Z,4.77
2019-03-06T09:51:36.581Z,3.60
2019-03-06T09:56:43.585Z,3.10
2019-03-06T10:01:52.628Z,3.50
2019-03-06T10:07:10.882Z,3.70
2019-03-06T10:12:32.218Z,3.73
2019-03-06T10:17:38.607Z,3.30
2019-03-06T10:22:43.344Z,4.57
2019-03-06T10:27:48.091Z,3.30
2019-03-06T10:32:52.831Z,3.17
2019-03-06T10:37:57.473Z,3.40
2019-03-06T10:43:02.219Z,7.10
2019-03-06T10:48:06.964Z,2.77
2019-03-06T10:53:12.727Z,3.07
2019-03-06T10:58:17.382Z,2.83
2019-03-06T11:03:23.653Z,2.70
2019-03-06T11:08:28.403Z,3.13
2019-03-06T11:13:33.136Z,2.90
2019-03-06T11:18:37.985Z,2.60
2019-03-06T11:23:42.725Z,3.90
2019-03-06T11:28:48.194Z,4.20
2019-03-06T11:33:53.135Z,2.30
2019-03-06T11:38:57.782Z,2.63
2019-03-06T11:44:02.520Z,2.57
2019-03-06T11:49:07.422Z,2.90
2019-03-06T11:54:12.213Z,2.87
2019-03-06T11:59:16.862Z,2.43
2019-03-06T12:04:22.558Z,3.00
2019-03-06T12:09:28.790Z,3.00
2019-03-06T12:14:34.084Z,2.57
2019-03-06T12:19:38.753Z,3.20
2019-03-06T12:24:43.545Z,2.27
2019-03-06T12:29:48.387Z,2.77
2019-03-06T12:34:53.134Z,2.53
2019-03-06T12:39:57.983Z,2.57
2019-03-06T12:45:03.441Z,3.10
2019-03-06T12:50:17.366Z,4.63
2019-03-06T12:55:22.147Z,2.57
2019-03-06T13:00:27.385Z,2.57
2019-03-06T13:05:32.449Z,2.67
2019-03-06T13:10:37.085Z,3.50
2019-03-06T13:15:41.837Z,3.30
2019-03-06T13:20:46.580Z,3.10
2019-03-06T13:25:51.318Z,2.83
2019-03-06T13:30:57.605Z,3.27
2019-03-06T13:36:02.958Z,2.80
2019-03-06T13:41:07.700Z,3.07
2019-03-06T13:46:12.546Z,6.60
2019-03-06T13:51:17.188Z,3.27
2019-03-06T13:56:22.038Z,2.67
2019-03-06T14:01:26.607Z,2.93
2019-03-06T14:06:31.419Z,4.10
2019-03-06T14:11:35.968Z,2.90
2019-03-06T14:16:40.803Z,2.33
2019-03-06T14:21:45.383Z,2.80
2019-03-06T14:26:50.311Z,5.00
2019-03-06T14:31:55.138Z,3.00
2019-03-06T14:36:59.899Z,3.20
2019-03-06T14:42:04.935Z,2.90
2019-03-06T14:47:09.503Z,2.80
2019-03-06T14:52:14.114Z,7.60
2019-03-06T14:57:19.375Z,10.60
2019-03-06T15:02:24.112Z,2.90
2019-03-06T15:07:30.495Z,2.30
2019-03-06T15:12:35.247Z,2.57
2019-03-06T15:17:39.981Z,2.23
2019-03-06T15:22:44.723Z,5.70
2019-03-06T15:27:49.470Z,5.40
2019-03-06T15:32:54.602Z,8.77
2019-03-06T15:37:59.575Z,16.77
2019-03-06T15:43:06.002Z,11.33
2019-03-06T15:48:10.595Z,5.43
2019-03-06T15:53:24.093Z,7.10
2019-03-06T15:58:21.926Z,5.00
2019-03-06T16:03:26.564Z,5.30
2019-03-06T16:08:31.311Z,7.30
2019-03-06T16:13:36.001Z,5.50
2019-03-06T16:18:40.695Z,16.27
2019-03-06T16:23:45.388Z,16.93
2019-03-06T16:28:52.334Z,20.03
2019-03-06T16:33:57.484Z,16.40
2019-03-06T16:39:02.229Z,11.57
2019-03-06T16:44:08.751Z,7.23
2019-03-06T16:49:16.320Z,13.70
2019-03-06T16:54:20.968Z,14.80
2019-03-06T16:59:26.886Z,24.30
2019-03-06T17:04:31.914Z,8.47
2019-03-06T17:09:37.971Z,29.97
2019-03-06T17:14:42.807Z,11.87
2019-03-06T17:19:47.444Z,12.00
2019-03-06T17:24:52.190Z,13.63
2019-03-06T17:29:58.372Z,5.73
2019-03-06T17:35:03.523Z,3.40
2019-03-06T17:40:09.492Z,7.77
2019-03-06T17:45:14.334Z,9.67
2019-03-06T17:50:19.083Z,8.50
2019-03-06T17:55:23.820Z,11.43
2019-03-06T18:00:46.383Z,12.47
2019-03-06T18:05:52.152Z,8.33
2019-03-06T18:10:56.890Z,7.50
2019-03-06T18:16:01.635Z,7.30
2019-03-06T18:21:06.477Z,7.83
2019-03-06T18:26:12.079Z,11.27
2019-03-06T18:31:16.841Z,10.27
2019-03-06T18:36:22.336Z,10.10
2019-03-06T18:41:27.558Z,7.33
2019-03-06T18:46:32.454Z,8.17
2019-03-06T18:51:37.923Z,6.60
2019-03-06T18:56:42.819Z,7.70
2019-03-06T19:01:47.720Z,7.10
2019-03-06T19:06:52.765Z,7.17
2019-03-06T19:11:58.927Z,12.33
2019-03-06T19:17:03.990Z,31.73
2019-03-06T19:22:09.158Z,52.70
2019-03-06T19:27:14.587Z,46.73
2019-03-06T19:32:21.042Z,37.43
2019-03-06T19:37:26.184Z,22.23
2019-03-06T19:42:34.132Z,14.20
2019-03-06T19:47:39.459Z,13.20
2019-03-06T19:52:45.003Z,11.37
2019-03-06T19:57:52.266Z,17.47
2019-03-06T20:02:58.554Z,12.50
2019-03-06T20:08:04.614Z,11.70
2019-03-06T20:13:09.449Z,11.37
2019-03-06T20:18:14.210Z,65.37
2019-03-06T20:23:19.358Z,12.90
2019-03-06T20:28:24.105Z,13.00
2019-03-06T20:33:28.752Z,13.40
2019-03-06T20:38:33.454Z,17.33
2019-03-06T20:43:38.229Z,18.17
2019-03-06T20:48:42.974Z,17.03
2019-03-06T20:53:47.715Z,14.90
2019-03-06T20:58:52.464Z,12.20
2019-03-06T21:03:57.613Z,11.30
2019-03-06T21:09:02.833Z,10.87
2019-03-06T21:14:09.247Z,12.33
2019-03-06T21:19:15.625Z,15.00
2019-03-06T21:24:20.391Z,14.57
2019-03-06T21:29:25.141Z,11.57
2019-03-06T21:34:29.961Z,11.10
2019-03-06T21:39:35.936Z,10.00
2019-03-06T21:44:40.671Z,11.60
2019-03-06T21:49:46.446Z,12.93
2019-03-06T21:54:51.224Z,8.77
2019-03-06T21:59:56.025Z,8.67
2019-03-06T22:05:02.103Z,9.23
2019-03-06T22:10:12.699Z,9.37
2019-03-06T22:15:23.653Z,9.90
2019-03-06T22:20:28.411Z,14.53
2019-03-06T22:25:33.154Z,9.97
2019-03-06T22:30:37.792Z,8.60
2019-03-06T22:35:42.427Z,9.10
2019-03-06T22:40:47.077Z,9.40
2019-03-06T22:45:51.718Z,9.90
2019-03-06T22:50:56.359Z,10.47
2019-03-06T22:56:00.993Z,10.10
2019-03-06T23:01:08.706Z,10.80
2019-03-06T23:06:16.022Z,11.83
2019-03-06T23:11:20.757Z,10.97
2019-03-06T23:16:25.601Z,11.60
2019-03-06T23:21:30.342Z,12.87
2019-03-06T23:26:42.456Z,13.80
2019-03-06T23:31:41.262Z,13.77
2019-03-06T23:36:46.006Z,13.23
2019-03-06T23:41:50.634Z,13.13
2019-03-06T23:46:55.388Z,13.30
2019-03-06T23:52:00.851Z,12.73
2019-03-06T23:57:05.705Z,14.13
